createdAt,value
2019-06-27T00:02:33.236Z,18.27
2019-06-27T00:07:36.595Z,16.23
2019-06-27T00:12:39.973Z,19.00
2019-06-27T00:17:43.403Z,15.73
2019-06-27T00:22:47.035Z,20.63
2019-06-27T00:27:50.382Z,15.27
2019-06-27T00:32:53.810Z,18.07
2019-06-27T00:37:57.222Z,14.70
2019-06-27T00:43:00.578Z,15.57
2019-06-27T00:48:03.956Z,18.03
2019-06-27T00:53:07.355Z,15.33
2019-06-27T00:58:10.940Z,13.57
2019-06-27T01:03:14.475Z,14.17
2019-06-27T01:08:17.816Z,14.60
2019-06-27T01:13:21.255Z,14.27
2019-06-27T01:18:24.770Z,14.73
2019-06-27T01:23:28.141Z,15.67
2019-06-27T01:28:31.488Z,15.13
2019-06-27T01:33:34.881Z,16.07
2019-06-27T01:38:38.491Z,14.25
2019-06-27T01:43:41.826Z,19.80
2019-06-27T01:48:45.283Z,15.47
2019-06-27T01:53:48.801Z,13.57
2019-06-27T01:58:52.135Z,15.60
2019-06-27T02:03:55.485Z,16.10
2019-06-27T02:08:58.903Z,15.33
2019-06-27T02:14:02.367Z,17.60
2019-06-27T02:19:05.774Z,19.97
2019-06-27T02:24:09.289Z,14.70
2019-06-27T02:29:12.657Z,13.67
2019-06-27T02:34:16.129Z,15.20
2019-06-27T02:39:19.555Z,14.00
2019-06-27T02:44:22.908Z,16.30
2019-06-27T02:49:26.271Z,20.23
2019-06-27T02:54:29.725Z,17.17
2019-06-27T02:59:33.093Z,19.80
2019-06-27T03:04:36.485Z,15.87
2019-06-27T03:09:39.992Z,17.67
2019-06-27T03:14:43.377Z,21.00
2019-06-27T03:19:46.758Z,20.73
2019-06-27T03:24:50.117Z,17.63
2019-06-27T03:29:53.599Z,16.23
2019-06-27T03:34:57.022Z,20.00
2019-06-27T03:40:00.355Z,20.07
2019-06-27T03:45:05.935Z,16.83
2019-06-27T03:50:09.488Z,17.47
2019-06-27T03:55:12.945Z,19.50
2019-06-27T04:00:28.425Z,15.17
2019-06-27T04:05:31.822Z,11.83
2019-06-27T04:10:35.220Z,13.77
2019-06-27T04:15:38.602Z,13.30
2019-06-27T04:20:42.134Z,13.73
2019-06-27T04:25:45.458Z,13.03
2019-06-27T04:30:48.856Z,14.73
2019-06-27T04:35:52.181Z,14.83
2019-06-27T04:40:55.620Z,12.17
2019-06-27T04:45:58.993Z,15.40
2019-06-27T04:51:02.365Z,15.30
2019-06-27T04:56:05.711Z,12.77
2019-06-27T05:01:09.145Z,14.13
2019-06-27T05:06:12.479Z,14.57
2019-06-27T05:11:15.994Z,21.47
2019-06-27T05:16:19.356Z,13.17
2019-06-27T05:21:22.717Z,15.63
2019-06-27T05:26:26.150Z,15.50
2019-06-27T05:31:29.644Z,11.30
2019-06-27T05:36:33.088Z,13.40
2019-06-27T05:41:36.397Z,18.53
2019-06-27T05:46:39.761Z,11.60
2019-06-27T05:51:43.219Z,16.70
2019-06-27T05:56:46.618Z,11.90
2019-06-27T06:01:49.999Z,9.43
2019-06-27T06:06:53.467Z,10.13
2019-06-27T06:11:56.906Z,11.37
2019-06-27T06:17:00.326Z,10.60
2019-06-27T06:22:03.693Z,10.83
2019-06-27T06:27:07.166Z,11.27
2019-06-27T06:32:10.725Z,11.53
2019-06-27T06:37:15.236Z,12.23
2019-06-27T06:42:18.607Z,11.70
2019-06-27T06:47:21.963Z,12.70
2019-06-27T06:52:25.432Z,12.00
2019-06-27T06:57:28.793Z,12.00
2019-06-27T07:02:32.244Z,10.88
2019-06-27T07:07:35.611Z,9.90
2019-06-27T07:12:38.979Z,8.55
2019-06-27T07:17:42.343Z,8.90
2019-06-27T07:22:45.689Z,14.17
2019-06-27T07:27:49.040Z,9.18
2019-06-27T07:32:52.445Z,11.50
2019-06-27T07:37:55.900Z,10.65
2019-06-27T07:42:59.253Z,11.97
2019-06-27T07:48:02.677Z,12.87
2019-06-27T07:53:06.065Z,10.60
2019-06-27T07:58:09.457Z,12.07
2019-06-27T08:03:12.800Z,11.20
2019-06-27T08:08:16.236Z,10.23
2019-06-27T08:13:19.650Z,12.35
2019-06-27T08:18:23.321Z,10.30
2019-06-27T08:23:40.558Z,11.50
2019-06-27T08:28:31.958Z,12.45
2019-06-27T08:33:35.331Z,22.22
2019-06-27T08:38:38.672Z,10.18
2019-06-27T08:43:42.126Z,13.60
2019-06-27T08:48:45.544Z,11.70
2019-06-27T08:53:49.183Z,10.60
2019-06-27T08:58:52.584Z,11.20
2019-06-27T09:03:56.081Z,12.55
2019-06-27T09:08:59.490Z,11.22
2019-06-27T09:14:02.831Z,13.62
2019-06-27T09:19:06.235Z,23.02
2019-06-27T09:24:09.789Z,9.30
2019-06-27T09:29:13.269Z,13.15
2019-06-27T09:34:16.705Z,8.23
2019-06-27T09:39:20.180Z,8.98
2019-06-27T09:44:23.871Z,8.90
2019-06-27T09:49:27.246Z,7.00
2019-06-27T09:54:30.760Z,13.10
2019-06-27T09:59:34.217Z,11.60
2019-06-27T10:04:37.767Z,7.33
2019-06-27T10:09:41.124Z,9.23
2019-06-27T10:14:44.486Z,10.82
2019-06-27T10:19:48.008Z,7.25
2019-06-27T10:24:51.407Z,6.20
2019-06-27T10:29:54.783Z,6.87
2019-06-27T10:34:58.225Z,6.85
2019-06-27T10:40:01.695Z,7.83
2019-06-27T10:45:08.434Z,7.35
2019-06-27T10:50:12.353Z,5.03
2019-06-27T10:55:15.795Z,8.55
2019-06-27T11:00:19.395Z,5.50
2019-06-27T11:05:22.820Z,5.25
2019-06-27T11:10:26.198Z,4.53
2019-06-27T11:15:29.568Z,5.10
2019-06-27T11:20:32.982Z,4.50
2019-06-27T11:25:36.314Z,6.62
2019-06-27T11:30:39.806Z,4.30
2019-06-27T11:35:43.141Z,3.35
2019-06-27T11:40:46.583Z,5.00
2019-06-27T11:45:49.999Z,3.17
2019-06-27T11:50:54.304Z,4.83
2019-06-27T11:55:57.692Z,8.03
2019-06-27T12:01:01.078Z,3.83
2019-06-27T12:06:04.463Z,2.17
2019-06-27T12:11:07.804Z,2.30
2019-06-27T12:16:11.157Z,4.78
2019-06-27T12:21:14.542Z,1.85
2019-06-27T12:26:17.897Z,2.75
2019-06-27T12:31:21.533Z,3.35
2019-06-27T12:36:24.933Z,1.62
2019-06-27T12:41:28.275Z,2.20
2019-06-27T12:46:31.625Z,2.15
2019-06-27T12:51:35.059Z,3.30
2019-06-27T12:56:38.377Z,1.77
2019-06-27T13:01:41.733Z,3.72
2019-06-27T13:06:45.233Z,3.17
2019-06-27T13:11:49.439Z,1.45
2019-06-27T13:16:52.765Z,2.12
2019-06-27T13:21:56.129Z,2.15
2019-06-27T13:26:59.486Z,3.62
2019-06-27T13:32:02.920Z,4.78
2019-06-27T13:37:06.265Z,2.70
2019-06-27T13:42:09.671Z,2.17
2019-06-27T13:47:13.027Z,1.30
2019-06-27T13:52:16.385Z,3.20
2019-06-27T13:57:19.756Z,4.20
2019-06-27T14:02:23.155Z,3.58
2019-06-27T14:07:26.504Z,1.85
2019-06-27T14:12:30.435Z,3.80
2019-06-27T14:17:33.822Z,2.20
2019-06-27T14:22:37.153Z,3.35
2019-06-27T14:27:40.473Z,4.30
2019-06-27T14:32:43.898Z,2.45
2019-06-27T14:37:47.367Z,7.75
2019-06-27T14:42:50.800Z,2.70
2019-06-27T14:47:54.133Z,4.97
2019-06-27T14:52:57.483Z,2.63
2019-06-27T14:58:00.856Z,4.05
2019-06-27T15:03:04.278Z,1.82
2019-06-27T15:08:07.700Z,3.15
2019-06-27T15:13:11.064Z,1.77
2019-06-27T15:18:16.774Z,1.80
2019-06-27T15:23:19.689Z,3.37
2019-06-27T15:28:23.526Z,1.72
2019-06-27T15:33:26.864Z,4.58
2019-06-27T15:38:30.352Z,1.47
2019-06-27T15:43:33.681Z,2.25
2019-06-27T15:48:37.322Z,2.15
2019-06-27T15:53:40.746Z,3.42
2019-06-27T15:58:44.119Z,3.72
2019-06-27T16:03:47.440Z,2.00
2019-06-27T16:08:50.836Z,3.02
2019-06-27T16:13:54.251Z,2.10
2019-06-27T16:18:57.581Z,4.72
2019-06-27T16:24:01.021Z,1.90
2019-06-27T16:29:04.356Z,2.40
2019-06-27T16:34:07.719Z,2.25
2019-06-27T16:39:11.114Z,1.80
2019-06-27T16:44:14.471Z,1.37
2019-06-27T16:49:17.809Z,2.15
2019-06-27T16:54:21.187Z,2.92
2019-06-27T16:59:24.481Z,2.55
2019-06-27T17:04:28.024Z,2.42
2019-06-27T17:09:31.371Z,2.90
2019-06-27T17:14:34.695Z,4.37
2019-06-27T17:19:38.202Z,2.25
2019-06-27T17:24:41.547Z,1.60
2019-06-27T17:29:44.873Z,1.87
2019-06-27T17:34:48.302Z,2.77
2019-06-27T17:39:51.664Z,2.80
2019-06-27T17:44:55.088Z,4.10
2019-06-27T17:49:58.528Z,1.35
2019-06-27T17:55:01.972Z,1.60
2019-06-27T18:00:06.557Z,1.40
2019-06-27T18:05:10.256Z,6.70
2019-06-27T18:10:14.065Z,1.85
2019-06-27T18:15:17.662Z,1.85
2019-06-27T18:20:20.990Z,1.00
2019-06-27T18:25:24.338Z,2.05
2019-06-27T18:30:27.676Z,0.90
2019-06-27T18:35:31.058Z,2.05
2019-06-27T18:40:34.482Z,1.57
2019-06-27T18:45:37.821Z,1.17
2019-06-27T18:50:41.274Z,1.30
2019-06-27T18:55:44.671Z,1.90
2019-06-27T19:00:49.126Z,4.58
2019-06-27T19:05:52.575Z,0.95
2019-06-27T19:10:55.908Z,2.35
2019-06-27T19:15:59.407Z,1.32
2019-06-27T19:21:04.382Z,3.00
2019-06-27T19:26:07.872Z,3.10
2019-06-27T19:31:11.256Z,4.93
2019-06-27T19:36:14.588Z,1.30
2019-06-27T19:41:17.963Z,2.67
2019-06-27T19:46:21.331Z,2.42
2019-06-27T19:51:24.743Z,1.70
2019-06-27T19:56:28.151Z,3.17
2019-06-27T20:01:31.556Z,2.70
2019-06-27T20:06:35.004Z,1.70
2019-06-27T20:11:38.275Z,4.20
2019-06-27T20:16:41.622Z,2.43
2019-06-27T20:21:44.966Z,1.20
2019-06-27T20:26:48.312Z,3.93
2019-06-27T20:31:51.664Z,8.77
2019-06-27T20:36:55.084Z,1.90
2019-06-27T20:41:58.576Z,2.97
2019-06-27T20:47:02.006Z,1.90
2019-06-27T20:52:04.456Z,6.30
2019-06-27T20:57:07.746Z,2.10
2019-06-27T21:02:11.085Z,2.47
2019-06-27T21:07:14.482Z,1.90
2019-06-27T21:12:17.872Z,3.03
2019-06-27T21:17:21.197Z,4.03
2019-06-27T21:22:24.540Z,3.10
2019-06-27T21:27:27.905Z,3.13
2019-06-27T21:32:32.140Z,2.93
2019-06-27T21:37:35.871Z,2.37
2019-06-27T21:42:39.301Z,2.00
2019-06-27T21:47:42.683Z,3.10
2019-06-27T21:52:46.053Z,4.23
2019-06-27T21:57:49.411Z,3.73
2019-06-27T22:02:52.746Z,2.87
2019-06-27T22:07:56.071Z,2.07
2019-06-27T22:12:59.472Z,3.77
2019-06-27T22:18:02.931Z,2.40
2019-06-27T22:23:06.252Z,3.03
2019-06-27T22:28:09.585Z,1.93
2019-06-27T22:33:12.985Z,2.87
2019-06-27T22:38:34.376Z,4.03
2019-06-27T22:43:55.640Z,3.20
2019-06-27T22:48:59.569Z,2.20
2019-06-27T22:54:04.556Z,7.10
2019-06-27T22:59:07.892Z,1.70
2019-06-27T23:04:11.326Z,5.63
2019-06-27T23:09:14.704Z,5.30
2019-06-27T23:14:18.113Z,2.97
2019-06-27T23:19:21.447Z,3.93
2019-06-27T23:24:24.823Z,3.67
2019-06-27T23:29:28.349Z,3.03
2019-06-27T23:34:31.711Z,4.13
2019-06-27T23:39:35.199Z,3.73
2019-06-27T23:44:38.975Z,3.27
2019-06-27T23:49:42.428Z,2.90
2019-06-27T23:54:45.964Z,5.47
2019-06-27T23:59:49.372Z,2.23
